Time;durP1;ratioP1;P1;durP2;ratioP2;P2;SDS_P1;SDS_P2;PMS_P1;PMS_P2;Temp;Humidity;BMP_temperature;BMP_pressure;BME280_temperature;BME280_humidity;BME280_pressure;Samples;Min_cycle;Max_cycle;Signal;HPM_P1;HPM_P2
2023/03/11 00:00:58;;;;;;;;;8.67;8.67;;;;;7.37;55.77;100412.59;5035759;28;45408;-72
2023/03/11 00:03:23;;;;;;;;;8.00;6.00;;;;;7.47;55.71;100424.06;5036813;28;45363;-73
2023/03/11 00:05:50;;;;;;;;;9.00;7.67;;;;;6.09;55.51;100222.72;5036313;28;46382;-73
2023/03/11 00:08:18;;;;;;;;;10.67;8.00;;;;;7.58;56.05;100437.19;5036292;28;45471;-72
2023/03/11 00:10:45;;;;;;;;;12.33;10.33;;;;;7.54;56.07;100435.78;5037399;28;45377;-72
2023/03/11 00:13:13;;;;;;;;;12.00;10.00;;;;;7.59;56.71;100467.97;5035691;28;45349;-72
2023/03/11 00:15:39;;;;;;;;;12.00;9.33;;;;;7.69;56.85;100475.13;5035284;28;48081;-73
2023/03/11 00:18:05;;;;;;;;;11.33;9.00;;;;;7.77;56.16;100472.66;5039690;28;45233;-72
2023/03/11 00:20:37;;;;;;;;;10.00;8.67;;;;;7.74;56.41;100470.28;5036671;28;45487;-72
2023/03/11 00:23:04;;;;;;;;;10.00;8.67;;;;;7.67;56.18;100455.91;5038920;28;45380;-73
2023/03/11 00:25:30;;;;;;;;;11.67;9.00;;;;;7.84;55.78;100465.88;5038274;28;47001;-71
2023/03/11 00:27:57;;;;;;;;;15.00;12.00;;;;;7.81;55.66;100435.22;5039295;28;45239;-73
2023/03/11 00:30:23;;;;;;;;;12.33;10.00;;;;;7.28;55.51;100347.28;5038069;28;45431;-73
2023/03/11 00:32:50;;;;;;;;;25.00;25.00;;;;;7.63;55.52;100421.78;5039418;28;45518;-72
2023/03/11 00:35:31;;;;;;;;;23.00;21.00;;;;;7.54;56.12;100429.66;5037662;28;46735;-72
2023/03/11 00:38:01;;;;;;;;;26.33;23.67;;;;;7.54;56.44;100427.84;5039099;28;45313;-72
2023/03/11 00:40:28;;;;;;;;;30.00;30.00;;;;;7.69;56.59;100454.81;5039391;28;45584;-72
2023/03/11 00:42:54;;;;;;;;;26.33;26.33;;;;;7.69;57.08;100436.28;5039234;28;45491;-72
2023/03/11 00:45:20;;;;;;;;;20.33;18.00;;;;;7.71;56.55;100444.94;5038917;28;45735;-73
2023/03/11 00:47:45;;;;;;;;;24.00;22.00;;;;;7.65;56.30;100437.53;5039044;28;45372;-72
2023/03/11 00:50:32;;;;;;;;;19.67;18.67;;;;;7.36;56.61;100415.38;5038237;28;45428;-72
2023/03/11 00:52:58;;;;;;;;;18.00;18.00;;;;;7.19;57.12;100398.31;5039321;28;45352;-71
2023/03/11 00:55:29;;;;;;;;;18.00;15.67;;;;;7.37;56.53;100438.19;5038370;28;46525;-73
2023/03/11 00:57:59;;;;;;;;;17.67;15.00;;;;;7.03;57.11;100367.06;5038888;28;45274;-72
2023/03/11 01:00:27;;;;;;;;;12.00;12.00;;;;;7.31;57.19;100423.72;5037668;28;45487;-73
2023/03/11 01:02:54;;;;;;;;;19.00;17.67;;;;;7.24;57.41;100441.06;5038908;28;45522;-71
2023/03/11 01:05:21;;;;;;;;;11.67;11.00;;;;;7.21;57.55;100454.56;5038557;28;46595;-73
2023/03/11 01:07:47;;;;;;;;;11.67;11.67;;;;;7.19;57.58;100440.59;5038567;28;45498;-74
2023/03/11 01:10:13;;;;;;;;;14.33;12.67;;;;;7.37;57.08;100462.84;5039575;28;45462;-73
2023/03/11 01:12:39;;;;;;;;;16.00;12.67;;;;;6.69;57.08;100379.63;5039759;28;45280;-73
2023/03/11 01:15:06;;;;;;;;;13.00;13.00;;;;;7.39;57.47;100466.19;5038374;28;46267;-73
2023/03/11 01:17:31;;;;;;;;;15.67;13.33;;;;;7.13;57.36;100419.97;5038611;28;46761;-72
2023/03/11 01:19:56;;;;;;;;;18.67;15.67;;;;;7.36;57.69;100458.53;5038566;28;45245;-74
2023/03/11 01:22:22;;;;;;;;;13.00;12.00;;;;;7.30;56.92;100435.25;5038580;28;49819;-72
2023/03/11 01:24:47;;;;;;;;;17.67;12.00;;;;;7.22;57.89;100421.88;5038331;28;45664;-73
2023/03/11 01:27:13;;;;;;;;;15.67;13.67;;;;;7.35;57.33;100451.56;5037747;28;45233;-72
2023/03/11 01:29:38;;;;;;;;;17.33;14.33;;;;;7.37;57.95;100454.06;5037206;28;45266;-72
2023/03/11 01:32:04;;;;;;;;;12.00;9.33;;;;;7.43;57.17;100446.47;5037288;28;45205;-72
2023/03/11 01:34:29;;;;;;;;;7.33;6.67;;;;;7.51;56.45;100438.72;5038214;28;45826;-73
2023/03/11 01:36:55;;;;;;;;;5.00;5.00;;;;;7.11;55.93;100374.34;5038255;28;45299;-72
2023/03/11 01:39:20;;;;;;;;;17.33;16.33;;;;;7.54;56.55;100437.59;5037728;28;45466;-73
2023/03/11 01:41:45;;;;;;;;;19.33;14.67;;;;;7.66;56.57;100464.81;5038351;28;45484;-71
2023/03/11 01:44:11;;;;;;;;;5.67;5.67;;;;;7.39;56.15;100410.66;5037357;28;45588;-72
2023/03/11 01:46:52;;;;;;;;;7.00;5.33;;;;;7.66;55.39;100451.59;5038065;28;45475;-72
2023/03/11 01:49:18;;;;;;;;;6.33;5.33;;;;;6.07;55.91;100198.25;5036859;28;45280;-72
2023/03/11 01:51:49;;;;;;;;;7.67;7.67;;;;;6.77;55.71;100303.19;5038288;28;45322;-73
2023/03/11 01:54:20;;;;;;;;;5.00;5.00;;;;;7.63;55.64;100439.47;5037688;28;46481;-75
2023/03/11 01:56:48;;;;;;;;;3.00;2.67;;;;;7.46;55.45;100443.56;5018123;28;45178;-71
2023/03/11 01:59:20;;;;;;;;;2.67;2.67;;;;;7.41;55.58;100466.94;5018150;28;45326;-72
2023/03/11 02:02:00;;;;;;;;;3.00;3.00;;;;;6.78;55.86;100378.84;5018468;28;45444;-71
2023/03/11 02:04:27;;;;;;;;;4.00;4.00;;;;;6.56;55.70;100336.72;5017813;28;46788;-71
2023/03/11 02:06:54;;;;;;;;;3.00;3.00;;;;;7.38;55.59;100466.31;5018320;28;45355;-72
2023/03/11 02:09:22;;;;;;;;;4.33;4.00;;;;;7.37;56.20;100469.94;5033199;28;45208;-71
2023/03/11 02:11:49;;;;;;;;;3.33;3.33;;;;;7.39;56.10;100471.47;5018142;28;45417;-71
2023/03/11 02:14:15;;;;;;;;;4.00;4.00;;;;;7.31;55.91;100463.38;5037107;28;46436;-71
2023/03/11 02:16:40;;;;;;;;;3.67;3.00;;;;;6.97;56.30;100423.06;5037595;28;45345;-71
2023/03/11 02:19:33;;;;;;;;;2.00;2.00;;;;;7.22;55.42;100483.50;5037791;28;45299;-71
2023/03/11 02:21:59;;;;;;;;;5.00;4.00;;;;;7.17;56.56;100484.84;5037984;28;45418;-72
2023/03/11 02:24:43;;;;;;;;;3.67;2.00;;;;;7.19;56.36;100470.53;5037344;28;46572;-70
2023/03/11 02:27:12;;;;;;;;;3.00;3.00;;;;;7.01;56.54;100433.28;5037309;28;45346;-71
2023/03/11 02:29:40;;;;;;;;;3.00;3.00;;;;;7.14;56.33;100464.78;5037164;28;45470;-71
2023/03/11 02:32:08;;;;;;;;;6.33;3.00;;;;;7.25;57.13;100472.69;5037521;28;45484;-71
2023/03/11 02:34:36;;;;;;;;;8.00;3.67;;;;;7.25;57.49;100471.84;5037391;28;45744;-71
2023/03/11 02:37:08;;;;;;;;;6.67;5.00;;;;;7.26;58.10;100484.94;5035967;28;45218;-71
2023/03/11 02:39:36;;;;;;;;;4.67;4.00;;;;;6.92;58.85;100414.69;5036756;28;45394;-72
2023/03/11 02:42:09;;;;;;;;;6.00;4.67;;;;;6.99;57.99;100429.06;5037342;28;45443;-72
2023/03/11 02:44:35;;;;;;;;;6.33;6.33;;;;;7.25;58.90;100466.53;5035430;28;46436;-72
2023/03/11 02:47:00;;;;;;;;;3.67;3.67;;;;;7.15;58.24;100436.53;5037194;28;45391;-73
2023/03/11 02:49:26;;;;;;;;;7.33;3.00;;;;;7.20;59.14;100426.41;5037654;28;45262;-71
2023/03/11 02:51:51;;;;;;;;;4.67;3.33;;;;;6.85;59.09;100363.34;5037809;28;45411;-72
2023/03/11 02:54:17;;;;;;;;;9.00;3.00;;;;;6.78;58.98;100341.88;5036920;28;45732;-71
2023/03/11 02:56:42;;;;;;;;;4.00;4.00;;;;;6.59;58.76;100320.59;5037088;28;45518;-70
2023/03/11 02:59:08;;;;;;;;;6.67;3.67;;;;;7.31;58.70;100439.56;5036904;28;45415;-71
2023/03/11 03:01:34;;;;;;;;;6.33;6.33;;;;;7.29;58.82;100441.50;5037134;28;45213;-72
2023/03/11 03:04:00;;;;;;;;;5.00;4.00;;;;;7.29;59.20;100458.22;5036772;28;45651;-72
2023/03/11 03:06:27;;;;;;;;;4.00;4.00;;;;;6.89;58.97;100407.88;5037105;28;45316;-72
2023/03/11 03:08:53;;;;;;;;;3.00;3.00;;;;;6.54;59.32;100375.63;5036820;28;45484;-71
2023/03/11 03:11:18;;;;;;;;;4.33;4.33;;;;;6.89;60.17;100447.50;5037126;28;45272;-72
2023/03/11 03:13:43;;;;;;;;;7.33;5.33;;;;;5.55;60.71;100226.25;5036892;28;46857;-73
2023/03/11 03:16:09;;;;;;;;;8.00;5.33;;;;;6.87;60.57;100432.75;5036865;28;45589;-71
2023/03/11 03:18:34;;;;;;;;;8.00;5.67;;;;;6.75;60.68;100391.50;5036762;28;45428;-72
2023/03/11 03:20:59;;;;;;;;;6.00;5.00;;;;;7.08;60.10;100456.53;5035771;28;45496;-72
2023/03/11 03:23:25;;;;;;;;;7.33;5.00;;;;;6.95;60.60;100444.34;5031693;28;49936;-71
2023/03/11 03:25:50;;;;;;;;;8.67;8.00;;;;;6.82;60.66;100442.88;5015833;28;45301;-71
2023/03/11 03:28:16;;;;;;;;;5.33;4.33;;;;;6.90;60.57;100443.91;5017135;28;45506;-71
2023/03/11 03:30:41;;;;;;;;;6.00;5.00;;;;;6.91;59.89;100424.44;5017349;28;45578;-71
2023/03/11 03:33:07;;;;;;;;;4.50;4.00;;;;;6.84;61.14;100420.63;5031622;28;46434;-72
2023/03/11 03:35:34;;;;;;;;;4.67;4.67;;;;;6.78;60.58;100409.72;5068855;28;45551;-71
2023/03/11 03:38:00;;;;;;;;;9.67;6.00;;;;;6.64;61.94;100416.16;5036527;28;45214;-72
2023/03/11 03:40:26;;;;;;;;;4.67;4.00;;;;;6.65;62.04;100423.13;5036676;28;45403;-71
2023/03/11 03:42:51;;;;;;;;;4.00;4.00;;;;;6.62;61.64;100418.09;5036412;28;45530;-72
2023/03/11 03:45:17;;;;;;;;;9.33;6.00;;;;;6.28;62.24;100357.50;5034902;28;45665;-71
2023/03/11 03:47:42;;;;;;;;;5.00;4.00;;;;;6.68;62.13;100414.94;5036820;28;45366;-71
2023/03/11 03:50:10;;;;;;;;;8.33;6.33;;;;;6.67;62.24;100419.38;5036839;28;45509;-70
2023/03/11 03:52:36;;;;;;;;;3.00;3.00;;;;;6.39;61.65;100367.16;5038447;28;48309;-72
2023/03/11 03:55:03;;;;;;;;;5.33;5.33;;;;;6.71;62.03;100427.91;5039712;28;45387;-71
2023/03/11 03:57:28;;;;;;;;;8.67;7.33;;;;;6.46;61.94;100428.25;5040197;28;45471;-72
2023/03/11 03:59:54;;;;;;;;;7.00;5.00;;;;;6.27;61.96;100384.84;5038824;28;45558;-71
2023/03/11 04:02:19;;;;;;;;;8.00;4.00;;;;;6.61;61.63;100456.03;5038365;28;46620;-72
2023/03/11 04:04:45;;;;;;;;;9.33;7.00;;;;;5.81;61.79;100337.59;5039675;28;45292;-72
2023/03/11 04:07:10;;;;;;;;;9.00;5.00;;;;;6.35;61.70;100442.31;5040077;28;45365;-73
2023/03/11 04:09:39;;;;;;;;;6.33;6.33;;;;;6.37;62.60;100461.50;5040126;28;45197;-74
2023/03/11 04:12:05;;;;;;;;;8.00;7.33;;;;;6.33;62.51;100463.56;5039679;28;46637;-70
2023/03/11 04:14:30;;;;;;;;;4.00;4.00;;;;;6.39;62.79;100434.00;5039536;28;45502;-71
2023/03/11 04:16:56;;;;;;;;;9.67;7.00;;;;;6.31;62.47;100417.97;5039737;28;45309;-71
2023/03/11 04:19:21;;;;;;;;;5.67;5.00;;;;;6.27;63.25;100455.28;5040056;28;45251;-70
2023/03/11 04:21:47;;;;;;;;;7.33;7.33;;;;;5.83;63.95;100416.59;5039436;28;46447;-71
2023/03/11 04:24:12;;;;;;;;;12.00;8.67;;;;;5.72;64.52;100404.25;5039221;28;45606;-70
2023/03/11 04:26:38;;;;;;;;;8.00;8.00;;;;;6.01;64.97;100442.41;5039707;28;45474;-71
2023/03/11 04:29:03;;;;;;;;;10.00;9.00;;;;;6.15;64.45;100438.63;5040048;28;45438;-71
2023/03/11 04:31:28;;;;;;;;;7.00;7.00;;;;;6.24;64.72;100435.25;5039264;28;45790;-70
2023/03/11 04:33:54;;;;;;;;;10.67;9.33;;;;;6.35;64.15;100444.94;5039188;28;45466;-71
2023/03/11 04:36:19;;;;;;;;;7.33;7.33;;;;;6.49;64.21;100457.88;5039342;28;45502;-71
2023/03/11 04:38:45;;;;;;;;;12.33;10.00;;;;;5.82;63.85;100333.97;5039524;28;45173;-71
2023/03/11 04:41:11;;;;;;;;;10.00;10.00;;;;;6.37;63.59;100474.69;5039234;28;46461;-72
2023/03/11 04:43:36;;;;;;;;;11.67;10.33;;;;;6.32;63.79;100469.78;5038819;28;45309;-70
2023/03/11 04:46:01;;;;;;;;;10.00;9.00;;;;;6.32;63.91;100477.72;5039312;28;45336;-70
2023/03/11 04:48:27;;;;;;;;;10.00;9.00;;;;;6.39;64.38;100494.72;5039327;28;45573;-71
2023/03/11 04:50:54;;;;;;;;;10.33;9.67;;;;;6.44;63.73;100477.69;5038882;28;45846;-71
2023/03/11 04:53:19;;;;;;;;;9.33;7.67;;;;;6.45;63.82;100503.16;5037106;28;46053;-72
2023/03/11 04:55:46;;;;;;;;;13.33;9.67;;;;;5.74;63.39;100392.59;5037820;28;45309;-71
2023/03/11 04:58:12;;;;;;;;;19.00;14.00;;;;;6.16;64.31;100474.63;5039439;28;45261;-71
2023/03/11 05:00:37;;;;;;;;;14.33;11.00;;;;;6.15;64.51;100480.84;5038909;28;46577;-71
2023/03/11 05:03:03;;;;;;;;;9.00;9.00;;;;;6.22;64.78;100482.06;5038681;28;45423;-71
2023/03/11 05:05:28;;;;;;;;;11.33;11.00;;;;;5.46;64.59;100330.69;5039046;28;45277;-72
2023/03/11 05:07:54;;;;;;;;;15.00;11.00;;;;;6.05;64.57;100420.06;5039194;28;45225;-72
2023/03/11 05:10:21;;;;;;;;;17.67;14.33;;;;;6.35;63.59;100456.34;5038509;28;45746;-71
2023/03/11 05:12:48;;;;;;;;;10.67;10.00;;;;;6.25;64.03;100454.59;5038388;28;45218;-71
2023/03/11 05:15:13;;;;;;;;;11.33;10.33;;;;;6.38;64.11;100477.22;5038600;28;45316;-72
2023/03/11 05:17:39;;;;;;;;;11.00;10.00;;;;;6.31;64.84;100476.03;5039013;28;45305;-72
2023/03/11 05:20:06;;;;;;;;;15.00;12.00;;;;;6.33;64.84;100495.22;5038402;28;46413;-72
2023/03/11 05:22:32;;;;;;;;;9.00;9.00;;;;;6.16;65.10;100497.53;5038242;28;45502;-78
2023/03/11 05:24:57;;;;;;;;;12.67;9.67;;;;;6.19;64.54;100492.84;5037087;28;45393;-72
2023/03/11 05:27:23;;;;;;;;;13.67;12.33;;;;;5.83;65.23;100445.63;5038884;28;45471;-71
2023/03/11 05:29:48;;;;;;;;;13.67;9.33;;;;;6.16;65.70;100490.44;5038189;28;45515;-71
2023/03/11 05:32:14;;;;;;;;;16.67;14.33;;;;;6.16;65.52;100487.81;5037846;28;58951;-70
2023/03/11 05:34:39;;;;;;;;;14.00;13.33;;;;;6.16;65.67;100495.72;5038229;28;45254;-71
2023/03/11 05:37:05;;;;;;;;;13.67;12.33;;;;;6.26;65.53;100495.84;5038792;28;45312;-70
2023/03/11 05:39:30;;;;;;;;;12.33;11.00;;;;;6.24;65.76;100498.63;5037912;28;45575;-71
2023/03/11 05:41:55;;;;;;;;;11.00;11.00;;;;;6.09;65.60;100462.88;5036346;28;45291;-71
2023/03/11 05:44:22;;;;;;;;;14.00;11.33;;;;;6.35;65.31;100497.75;5038315;28;45293;-72
2023/03/11 05:46:47;;;;;;;;;11.00;9.33;;;;;6.33;64.87;100511.06;5053961;28;45490;-71
2023/03/11 05:49:13;;;;;;;;;14.33;12.33;;;;;5.58;65.55;100378.94;5037914;28;45625;-71
2023/03/11 05:51:39;;;;;;;;;11.67;11.67;;;;;6.44;65.00;100519.97;5038346;28;45284;-75
2023/03/11 05:54:10;;;;;;;;;8.33;8.00;;;;;6.24;64.43;100479.31;5037378;28;45464;-71
2023/03/11 05:56:35;;;;;;;;;11.00;10.33;;;;;5.47;64.53;100355.25;5038160;28;45237;-72
2023/03/11 05:59:00;;;;;;;;;11.00;10.67;;;;;6.58;64.99;100540.78;5037729;28;45594;-71
2023/03/11 06:01:26;;;;;;;;;15.67;15.67;;;;;6.58;64.66;100524.94;5038058;28;46911;-73
2023/03/11 06:03:51;;;;;;;;;13.33;13.33;;;;;6.56;64.28;100514.50;5038202;28;45418;-72
2023/03/11 06:06:16;;;;;;;;;14.00;11.33;;;;;6.18;64.79;100474.50;5037028;28;45551;-72
2023/03/11 06:08:48;;;;;;;;;12.67;11.00;;;;;6.32;65.49;100508.56;5038369;28;45774;-73
2023/03/11 06:11:13;;;;;;;;;15.67;12.67;;;;;5.73;65.69;100427.84;5038525;28;45261;-72
2023/03/11 06:13:38;;;;;;;;;10.00;9.67;;;;;5.96;65.25;100478.00;5037111;28;45250;-71
2023/03/11 06:16:04;;;;;;;;;16.67;12.67;;;;;6.28;65.38;100521.16;5037820;28;45584;-72
2023/03/11 06:18:29;;;;;;;;;13.00;11.67;;;;;6.20;65.49;100534.13;5037563;28;46640;-71
2023/03/11 06:20:58;;;;;;;;;12.67;10.33;;;;;6.19;65.88;100535.06;5037584;28;45330;-72
2023/03/11 06:23:25;;;;;;;;;12.00;10.00;;;;;5.88;65.26;100467.19;5037281;28;45380;-72
2023/03/11 06:26:02;;;;;;;;;7.67;5.00;;;;;5.97;65.83;100530.66;5037874;28;45348;-71
2023/03/11 06:28:28;;;;;;;;;11.33;10.33;;;;;5.04;66.27;100366.50;5037202;28;47518;-71
2023/03/11 06:30:55;;;;;;;;;10.33;7.67;;;;;5.93;65.30;100494.06;5037284;28;45420;-72
2023/03/11 06:33:22;;;;;;;;;13.00;9.33;;;;;6.01;65.08;100528.63;5037057;28;45403;-73
2023/03/11 06:35:58;;;;;;;;;9.67;9.67;;;;;5.89;66.51;100521.63;5033425;28;45413;-71
2023/03/11 06:38:23;;;;;;;;;9.67;9.67;;;;;5.91;65.99;100525.03;5037250;28;46682;-71
2023/03/11 06:40:49;;;;;;;;;12.33;12.33;;;;;6.10;66.15;100541.09;5037343;28;45487;-71
2023/03/11 06:43:14;;;;;;;;;11.67;10.33;;;;;5.98;65.73;100490.09;5037207;28;45513;-72
2023/03/11 06:45:39;;;;;;;;;9.33;9.33;;;;;6.14;64.80;100500.28;5036816;28;45338;-71
2023/03/11 06:48:05;;;;;;;;;4.00;3.00;;;;;6.47;64.44;100538.19;5037099;28;46029;-71
2023/03/11 06:50:30;;;;;;;;;15.00;9.00;;;;;6.09;64.15;100468.16;5037041;28;45379;-71
2023/03/11 06:52:56;;;;;;;;;8.00;8.00;;;;;6.12;63.68;100475.84;5037075;28;45383;-72
2023/03/11 06:55:21;;;;;;;;;11.00;10.00;;;;;6.47;64.55;100522.34;5037171;28;45274;-72
2023/03/11 06:57:47;;;;;;;;;8.67;7.00;;;;;6.48;64.22;100530.13;5036797;28;45998;-72
2023/03/11 07:00:13;;;;;;;;;9.33;8.67;;;;;6.32;64.17;100519.97;5037029;28;45401;-72
2023/03/11 07:02:38;;;;;;;;;9.67;8.33;;;;;6.51;64.45;100539.63;5037277;28;45275;-72
2023/03/11 07:05:04;;;;;;;;;7.33;7.00;;;;;6.46;63.80;100518.88;5037732;28;45358;-72
2023/03/11 07:07:30;;;;;;;;;10.67;8.67;;;;;6.72;63.52;100532.59;5037414;28;46794;-73
2023/03/11 07:09:56;;;;;;;;;9.00;9.00;;;;;6.74;63.74;100549.16;5036902;28;45434;-73
2023/03/11 07:12:24;;;;;;;;;9.33;9.33;;;;;6.16;63.34;100471.13;5035348;28;45722;-73
2023/03/11 07:14:53;;;;;;;;;2.33;2.33;;;;;6.71;63.41;100562.63;5037138;28;45585;-72
2023/03/11 07:17:19;;;;;;;;;8.00;7.00;;;;;6.61;63.52;100567.00;5035346;28;48783;-71
2023/03/11 07:19:44;;;;;;;;;9.00;8.00;;;;;6.60;64.07;100575.84;5036271;28;45166;-72
2023/03/11 07:22:09;;;;;;;;;10.00;9.00;;;;;6.50;64.08;100585.47;5035613;28;52373;-73
2023/03/11 07:24:34;;;;;;;;;10.00;8.00;;;;;5.74;64.11;100434.81;5037531;28;45294;-74
2023/03/11 07:27:00;;;;;;;;;9.67;9.00;;;;;6.39;63.81;100552.81;5035879;28;45510;-70
2023/03/11 07:29:25;;;;;;;;;11.33;9.67;;;;;6.62;63.84;100560.75;5035412;28;45501;-73
2023/03/11 07:31:51;;;;;;;;;7.33;7.33;;;;;6.70;62.66;100568.88;5036816;28;46394;-71
2023/03/11 07:34:16;;;;;;;;;13.33;12.33;;;;;6.34;62.98;100498.72;5035858;28;45497;-73
2023/03/11 07:36:42;;;;;;;;;9.67;9.00;;;;;6.98;61.93;100594.72;5036607;28;45202;-72
2023/03/11 07:39:15;;;;;;;;;8.33;7.67;;;;;6.87;62.08;100571.00;5035124;28;45503;-73
2023/03/11 07:41:40;;;;;;;;;7.33;6.67;;;;;6.25;61.81;100481.81;5036647;28;45214;-74
2023/03/11 07:44:06;;;;;;;;;8.67;6.67;;;;;7.02;61.20;100611.22;5036135;28;45401;-73
2023/03/11 07:46:31;;;;;;;;;9.00;9.00;;;;;7.00;60.64;100613.09;5036119;28;45589;-73
2023/03/11 07:48:57;;;;;;;;;6.00;6.00;;;;;6.03;61.03;100466.03;5037113;28;45646;-73
2023/03/11 07:51:25;;;;;;;;;7.67;7.67;;;;;6.94;60.78;100595.94;5036647;28;45452;-72
2023/03/11 07:53:53;;;;;;;;;9.00;6.67;;;;;7.16;60.45;100607.44;5035680;28;45380;-73
2023/03/11 07:56:20;;;;;;;;;8.00;7.33;;;;;7.19;60.33;100596.59;5035189;28;48844;-72
2023/03/11 07:58:45;;;;;;;;;9.00;6.33;;;;;6.86;60.05;100556.09;5036541;28;45606;-72
2023/03/11 08:01:17;;;;;;;;;8.33;7.67;;;;;7.11;60.28;100601.69;5036742;28;45533;-73
2023/03/11 08:03:48;;;;;;;;;8.67;6.33;;;;;6.78;60.85;100520.69;5035182;28;45460;-72
2023/03/11 08:06:16;;;;;;;;;10.00;8.00;;;;;6.77;59.98;100506.63;5035306;28;47574;-73
2023/03/11 08:08:42;;;;;;;;;9.33;8.67;;;;;7.47;59.97;100626.91;5036627;28;45465;-73
2023/03/11 08:11:07;;;;;;;;;8.67;7.00;;;;;7.63;59.24;100617.56;5036399;28;45417;-73
2023/03/11 08:13:33;;;;;;;;;6.00;4.00;;;;;7.57;58.59;100593.41;5036056;28;45436;-76
2023/03/11 08:15:58;;;;;;;;;4.33;3.67;;;;;7.50;58.30;100550.78;5031517;28;47161;-72
2023/03/11 08:18:23;;;;;;;;;10.67;7.33;;;;;7.48;57.76;100536.84;5020710;28;45418;-73
2023/03/11 08:20:49;;;;;;;;;6.00;6.00;;;;;7.87;57.74;100600.59;5036288;28;45490;-73
2023/03/11 08:24:14;;;;;;;;;11.00;11.00;;;;;8.16;57.27;100625.41;5036299;28;45223;-75
2023/03/11 08:26:40;;;;;;;;;9.00;9.00;;;;;8.29;57.49;100625.22;5007075;28;45586;-73
2023/03/11 08:29:06;;;;;;;;;8.33;8.00;;;;;8.36;56.69;100605.19;5035984;28;45307;-73
2023/03/11 08:31:33;;;;;;;;;11.00;11.00;;;;;8.55;56.90;100604.44;5036378;28;45522;-73
2023/03/11 08:34:02;;;;;;;;;10.67;9.00;;;;;8.74;55.91;100623.03;5035929;28;45601;-72
2023/03/11 08:36:27;;;;;;;;;9.33;9.00;;;;;8.77;55.25;100598.91;5016558;28;46430;-74
2023/03/11 08:38:53;;;;;;;;;10.00;8.33;;;;;8.96;54.76;100606.06;5037376;28;45437;-72
2023/03/11 08:41:18;;;;;;;;;12.33;12.00;;;;;7.98;53.81;100433.72;5038135;28;45245;-73
2023/03/11 08:43:44;;;;;;;;;12.67;10.33;;;;;9.05;54.15;100602.59;5039054;28;45240;-72
2023/03/11 08:46:23;;;;;;;;;13.00;12.33;;;;;8.80;53.61;100542.97;5037951;28;46047;-73
2023/03/11 08:48:48;;;;;;;;;15.00;13.33;;;;;9.04;54.16;100573.56;5039657;28;45356;-73
2023/03/11 08:51:13;;;;;;;;;11.67;10.67;;;;;9.19;54.28;100627.88;5039486;28;45376;-72
2023/03/11 08:53:39;;;;;;;;;14.33;12.00;;;;;8.28;54.41;100471.72;5039050;28;45535;-73
2023/03/11 08:56:05;;;;;;;;;11.33;10.33;;;;;9.17;54.56;100613.91;5037446;28;46024;-70
2023/03/11 08:58:30;;;;;;;;;13.00;11.00;;;;;9.35;54.69;100598.16;5038664;28;45395;-69
2023/03/11 09:00:56;;;;;;;;;14.33;11.67;;;;;9.54;53.67;100606.09;5037969;28;45499;-71
2023/03/11 09:03:21;;;;;;;;;14.00;11.00;;;;;9.00;52.74;100468.75;5038658;28;45404;-71
2023/03/11 09:05:46;;;;;;;;;9.00;9.00;;;;;10.12;51.71;100632.56;5037069;28;48954;-71
2023/03/11 09:08:12;;;;;;;;;12.67;8.00;;;;;10.01;51.48;100574.28;5038377;28;45464;-71
2023/03/11 09:10:37;;;;;;;;;8.33;8.33;;;;;10.00;49.27;100569.97;5037648;28;45263;-69
2023/03/11 09:13:02;;;;;;;;;6.67;6.67;;;;;9.97;49.34;100629.53;5039515;28;45222;-72
2023/03/11 09:15:28;;;;;;;;;7.00;7.00;;;;;9.61;49.97;100601.06;5038389;28;45429;-71
2023/03/11 09:17:54;;;;;;;;;8.00;8.00;;;;;9.80;50.59;100627.59;5036793;28;45456;-74
2023/03/11 09:20:20;;;;;;;;;8.67;8.67;;;;;9.90;50.55;100623.13;5038603;28;45684;-71
2023/03/11 09:22:45;;;;;;;;;6.00;6.00;;;;;9.81;50.13;100616.03;5038488;28;45412;-70
2023/03/11 09:25:11;;;;;;;;;9.67;8.00;;;;;9.82;50.60;100625.66;5038074;28;46742;-71
2023/03/11 09:27:38;;;;;;;;;9.67;8.33;;;;;9.92;50.16;100618.50;5038301;28;45189;-69
2023/03/11 09:30:04;;;;;;;;;21.67;18.00;;;;;7.37;50.42;100190.47;5038540;28;45253;-70
2023/03/11 09:32:29;;;;;;;;;7.00;6.33;;;;;10.10;49.82;100601.81;5037346;28;45352;-69
2023/03/11 09:34:54;;;;;;;;;8.00;8.00;;;;;9.97;49.26;100562.28;5040136;28;45414;-72
2023/03/11 09:37:20;;;;;;;;;9.33;6.33;;;;;10.00;49.15;100522.16;5039656;28;45236;-70
2023/03/11 09:39:45;;;;;;;;;8.67;7.67;;;;;10.29;49.80;100607.09;5038412;28;45388;-72
2023/03/11 09:42:32;;;;;;;;;4.00;3.00;;;;;10.29;49.11;100605.28;5039653;28;45511;-72
2023/03/11 09:45:14;;;;;;;;;8.33;8.33;;;;;10.18;49.48;100594.78;5039755;28;45225;-73
2023/03/11 09:47:44;;;;;;;;;11.00;9.00;;;;;10.24;49.58;100620.00;5040415;28;45557;-73
2023/03/11 09:50:22;;;;;;;;;7.67;7.67;;;;;10.00;50.13;100634.53;5036602;28;45328;-71
2023/03/11 09:53:09;;;;;;;;;7.33;6.67;;;;;9.95;50.46;100622.69;5038007;28;45499;-71
2023/03/11 09:56:00;;;;;;;;;9.67;8.67;;;;;9.94;49.44;100613.03;5048792;28;46215;-73
2023/03/11 09:58:35;;;;;;;;;10.00;7.67;;;;;10.01;49.84;100614.13;5037936;28;45504;-72
2023/03/11 10:01:02;;;;;;;;;7.00;7.00;;;;;9.45;48.60;100488.38;5040613;28;45388;-73
2023/03/11 10:03:34;;;;;;;;;5.00;5.00;;;;;10.14;48.89;100568.66;5038295;28;45471;-71
2023/03/11 10:06:22;;;;;;;;;7.33;6.00;;;;;10.60;47.21;100626.25;5037716;28;45296;-73
2023/03/11 10:08:53;;;;;;;;;5.33;5.33;;;;;9.98;47.73;100502.88;5037923;28;45593;-74
2023/03/11 10:11:29;;;;;;;;;6.00;4.67;;;;;10.83;46.70;100640.03;5037817;28;45478;-73
2023/03/11 10:14:11;;;;;;;;;8.67;6.67;;;;;10.79;46.84;100636.81;5036696;28;45622;-74
2023/03/11 10:16:58;;;;;;;;;6.00;6.00;;;;;10.88;47.12;100643.91;5036615;28;47771;-74
2023/03/11 10:19:48;;;;;;;;;5.00;5.00;;;;;10.12;46.75;100517.50;5038477;28;45353;-74
2023/03/11 10:22:23;;;;;;;;;5.33;5.33;;;;;11.06;46.39;100651.09;5030093;28;45530;-71
2023/03/11 10:25:19;;;;;;;;;5.33;5.33;;;;;10.97;46.71;100640.34;5038356;28;45422;-75
2023/03/11 10:27:51;;;;;;;;;6.00;6.00;;;;;10.84;45.85;100647.88;5016783;28;47378;-72
2023/03/11 10:30:30;;;;;;;;;5.00;5.00;;;;;10.09;46.00;100501.88;5037666;28;45470;-72
2023/03/11 10:33:02;;;;;;;;;5.67;5.67;;;;;10.92;46.30;100615.19;5036831;28;45371;-72
2023/03/11 10:35:39;;;;;;;;;6.00;6.00;;;;;10.61;46.00;100596.91;5038683;28;45281;-73
2023/03/11 10:38:11;;;;;;;;;6.33;6.33;;;;;10.69;46.19;100636.03;5037407;28;49019;-72
2023/03/11 10:40:40;;;;;;;;;6.00;6.00;;;;;10.32;46.65;100590.88;5037272;28;45731;-72
2023/03/11 10:43:13;;;;;;;;;5.67;4.00;;;;;10.44;47.43;100621.59;5035837;28;45515;-72
2023/03/11 10:45:43;;;;;;;;;7.33;5.00;;;;;10.76;46.85;100649.56;5037321;28;45909;-72
2023/03/11 10:48:19;;;;;;;;;18.00;15.33;;;;;10.32;47.56;100569.63;5036420;28;47410;-73
2023/03/11 10:50:57;;;;;;;;;8.00;7.00;;;;;10.79;46.60;100638.63;5036745;28;45233;-72
2023/03/11 10:53:23;;;;;;;;;6.67;6.67;;;;;10.47;47.35;100631.94;5043431;28;45538;-75
2023/03/11 10:55:54;;;;;;;;;5.00;5.00;;;;;10.35;47.16;100628.59;5050370;28;45632;-73
2023/03/11 10:58:25;;;;;;;;;5.00;5.00;;;;;10.51;47.64;100641.28;5036716;28;46595;-70
2023/03/11 11:01:17;;;;;;;;;6.00;6.00;;;;;10.68;46.39;100638.84;5035502;28;45609;-74
2023/03/11 11:03:45;;;;;;;;;6.67;5.67;;;;;10.53;47.03;100636.66;5035630;28;45374;-74
2023/03/11 11:06:33;;;;;;;;;5.00;5.00;;;;;10.51;46.56;100633.31;5035919;28;45486;-73
2023/03/11 11:09:18;;;;;;;;;5.33;5.33;;;;;10.53;46.71;100641.13;5035637;28;48138;-72
2023/03/11 11:12:13;;;;;;;;;6.33;5.33;;;;;10.74;46.58;100646.22;5037697;28;45218;-72
2023/03/11 11:14:46;;;;;;;;;5.00;5.00;;;;;10.79;46.23;100625.34;5039288;28;45565;-73
2023/03/11 11:17:18;;;;;;;;;6.33;6.33;;;;;10.72;46.42;100624.25;5037508;28;45288;-72
2023/03/11 11:19:46;;;;;;;;;6.67;6.67;;;;;10.85;46.26;100632.75;5035865;28;46532;-71
2023/03/11 11:22:16;;;;;;;;;7.67;6.33;;;;;10.13;45.81;100497.94;5036906;28;45567;-72
2023/03/11 11:24:47;;;;;;;;;6.67;6.67;;;;;11.02;45.77;100631.94;5035719;28;45273;-74
2023/03/11 11:27:18;;;;;;;;;9.33;8.00;;;;;11.08;44.88;100631.34;5037531;28;45293;-72
2023/03/11 11:29:44;;;;;;;;;7.67;7.67;;;;;10.70;45.49;100583.69;5034699;28;48426;-71
2023/03/11 11:32:24;;;;;;;;;9.67;6.67;;;;;11.06;44.65;100614.69;5034998;28;45451;-72